sensor_id;sensor_type;location;lat;lon;timestamp;P1;durP1;ratioP1;P2;durP2;ratioP2
41456;SDS011;27197;51.752;5.220;2022-12-18T00:00:48;22.62;;;13.98;;
41456;SDS011;27197;51.752;5.220;2022-12-18T00:03:17;24.37;;;13.95;;
41456;SDS011;27197;51.752;5.220;2022-12-18T00:05:50;22.83;;;13.60;;
41456;SDS011;27197;51.752;5.220;2022-12-18T00:08:20;24.53;;;13.83;;
41456;SDS011;27197;51.752;5.220;2022-12-18T00:10:48;21.93;;;12.87;;
41456;SDS011;27197;51.752;5.220;2022-12-18T00:13:20;22.87;;;13.62;;
41456;SDS011;27197;51.752;5.220;2022-12-18T00:15:50;21.23;;;13.07;;
41456;SDS011;27197;51.752;5.220;2022-12-18T00:18:22;22.67;;;13.60;;
41456;SDS011;27197;51.752;5.220;2022-12-18T00:20:52;19.83;;;12.80;;
41456;SDS011;27197;51.752;5.220;2022-12-18T00:23:21;20.05;;;12.63;;
41456;SDS011;27197;51.752;5.220;2022-12-18T00:25:50;21.80;;;12.73;;
41456;SDS011;27197;51.752;5.220;2022-12-18T00:28:22;21.50;;;13.48;;
41456;SDS011;27197;51.752;5.220;2022-12-18T00:30:59;21.80;;;13.28;;
41456;SDS011;27197;51.752;5.220;2022-12-18T00:33:26;20.23;;;12.50;;
41456;SDS011;27197;51.752;5.220;2022-12-18T00:36:05;23.18;;;13.10;;
41456;SDS011;27197;51.752;5.220;2022-12-18T00:38:32;22.23;;;12.97;;
41456;SDS011;27197;51.752;5.220;2022-12-18T00:41:01;20.37;;;12.98;;
41456;SDS011;27197;51.752;5.220;2022-12-18T00:43:29;21.65;;;13.78;;
41456;SDS011;27197;51.752;5.220;2022-12-18T00:46:02;22.50;;;13.40;;
41456;SDS011;27197;51.752;5.220;2022-12-18T00:48:31;22.98;;;13.45;;
41456;SDS011;27197;51.752;5.220;2022-12-18T00:51:01;20.90;;;12.83;;
41456;SDS011;27197;51.752;5.220;2022-12-18T00:53:30;23.77;;;13.90;;
41456;SDS011;27197;51.752;5.220;2022-12-18T00:56:02;23.75;;;13.90;;
41456;SDS011;27197;51.752;5.220;2022-12-18T00:58:30;21.20;;;13.73;;
41456;SDS011;27197;51.752;5.220;2022-12-18T01:01:03;21.27;;;14.00;;
41456;SDS011;27197;51.752;5.220;2022-12-18T01:03:32;22.40;;;12.70;;
41456;SDS011;27197;51.752;5.220;2022-12-18T01:06:08;22.15;;;13.75;;
41456;SDS011;27197;51.752;5.220;2022-12-18T01:08:37;23.20;;;13.08;;
41456;SDS011;27197;51.752;5.220;2022-12-18T01:11:09;21.70;;;13.20;;
41456;SDS011;27197;51.752;5.220;2022-12-18T01:13:41;22.27;;;13.03;;
41456;SDS011;27197;51.752;5.220;2022-12-18T01:16:13;21.67;;;13.10;;
41456;SDS011;27197;51.752;5.220;2022-12-18T01:18:42;19.47;;;12.80;;
41456;SDS011;27197;51.752;5.220;2022-12-18T01:21:18;20.83;;;12.57;;
41456;SDS011;27197;51.752;5.220;2022-12-18T01:23:43;22.90;;;13.25;;
41456;SDS011;27197;51.752;5.220;2022-12-18T01:26:15;24.27;;;13.87;;
41456;SDS011;27197;51.752;5.220;2022-12-18T01:28:45;22.85;;;13.28;;
41456;SDS011;27197;51.752;5.220;2022-12-18T01:31:15;23.97;;;14.37;;
41456;SDS011;27197;51.752;5.220;2022-12-18T01:33:47;20.60;;;13.00;;
41456;SDS011;27197;51.752;5.220;2022-12-18T01:36:18;23.33;;;13.87;;
41456;SDS011;27197;51.752;5.220;2022-12-18T01:38:52;20.90;;;13.47;;
41456;SDS011;27197;51.752;5.220;2022-12-18T01:41:26;21.00;;;12.93;;
41456;SDS011;27197;51.752;5.220;2022-12-18T01:43:57;21.00;;;14.07;;
41456;SDS011;27197;51.752;5.220;2022-12-18T01:46:26;20.63;;;12.87;;
41456;SDS011;27197;51.752;5.220;2022-12-18T01:49:00;24.07;;;14.00;;
41456;SDS011;27197;51.752;5.220;2022-12-18T01:51:33;23.33;;;13.00;;
41456;SDS011;27197;51.752;5.220;2022-12-18T01:54:03;20.20;;;12.87;;
41456;SDS011;27197;51.752;5.220;2022-12-18T01:56:35;22.85;;;13.08;;
41456;SDS011;27197;51.752;5.220;2022-12-18T01:59:08;21.85;;;13.25;;
41456;SDS011;27197;51.752;5.220;2022-12-18T02:01:38;21.15;;;13.48;;
41456;SDS011;27197;51.752;5.220;2022-12-18T02:04:20;23.83;;;14.03;;
41456;SDS011;27197;51.752;5.220;2022-12-18T02:06:59;20.63;;;13.07;;
41456;SDS011;27197;51.752;5.220;2022-12-18T02:09:32;24.30;;;13.25;;
41456;SDS011;27197;51.752;5.220;2022-12-18T02:12:08;20.95;;;13.22;;
41456;SDS011;27197;51.752;5.220;2022-12-18T02:14:45;21.23;;;13.13;;
41456;SDS011;27197;51.752;5.220;2022-12-18T02:17:16;23.60;;;13.30;;
41456;SDS011;27197;51.752;5.220;2022-12-18T02:22:29;20.80;;;12.77;;
41456;SDS011;27197;51.752;5.220;2022-12-18T02:27:48;20.80;;;11.75;;
41456;SDS011;27197;51.752;5.220;2022-12-18T02:30:18;19.30;;;12.47;;
41456;SDS011;27197;51.752;5.220;2022-12-18T02:32:53;20.37;;;12.95;;
41456;SDS011;27197;51.752;5.220;2022-12-18T02:35:23;17.70;;;11.63;;
41456;SDS011;27197;51.752;5.220;2022-12-18T02:37:54;19.43;;;12.03;;
41456;SDS011;27197;51.752;5.220;2022-12-18T02:40:26;20.70;;;12.20;;
41456;SDS011;27197;51.752;5.220;2022-12-18T02:42:55;20.90;;;12.60;;
41456;SDS011;27197;51.752;5.220;2022-12-18T02:45:27;19.93;;;12.33;;
41456;SDS011;27197;51.752;5.220;2022-12-18T02:48:00;20.80;;;13.13;;
41456;SDS011;27197;51.752;5.220;2022-12-18T02:50:31;18.53;;;12.53;;
41456;SDS011;27197;51.752;5.220;2022-12-18T02:53:10;18.83;;;12.33;;
41456;SDS011;27197;51.752;5.220;2022-12-18T03:00:51;23.30;;;12.27;;
41456;SDS011;27197;51.752;5.220;2022-12-18T03:03:25;18.43;;;12.13;;
41456;SDS011;27197;51.752;5.220;2022-12-18T03:06:14;18.87;;;11.37;;
41456;SDS011;27197;51.752;5.220;2022-12-18T03:08:45;20.63;;;12.30;;
41456;SDS011;27197;51.752;5.220;2022-12-18T03:11:15;19.30;;;11.68;;
41456;SDS011;27197;51.752;5.220;2022-12-18T03:13:52;19.27;;;11.40;;
41456;SDS011;27197;51.752;5.220;2022-12-18T03:16:26;16.97;;;10.40;;
41456;SDS011;27197;51.752;5.220;2022-12-18T03:18:59;19.87;;;12.03;;
41456;SDS011;27197;51.752;5.220;2022-12-18T03:21:32;17.93;;;11.40;;
41456;SDS011;27197;51.752;5.220;2022-12-18T03:24:01;18.43;;;11.73;;
41456;SDS011;27197;51.752;5.220;2022-12-18T03:26:33;20.13;;;11.50;;
41456;SDS011;27197;51.752;5.220;2022-12-18T03:29:04;20.40;;;11.67;;
41456;SDS011;27197;51.752;5.220;2022-12-18T03:31:37;19.63;;;11.47;;
41456;SDS011;27197;51.752;5.220;2022-12-18T03:34:12;17.63;;;11.03;;
41456;SDS011;27197;51.752;5.220;2022-12-18T03:36:42;18.97;;;10.40;;
41456;SDS011;27197;51.752;5.220;2022-12-18T03:39:11;17.63;;;11.17;;
41456;SDS011;27197;51.752;5.220;2022-12-18T03:46:54;15.63;;;9.97;;
41456;SDS011;27197;51.752;5.220;2022-12-18T03:52:06;17.20;;;10.40;;
41456;SDS011;27197;51.752;5.220;2022-12-18T03:54:39;18.27;;;10.33;;
41456;SDS011;27197;51.752;5.220;2022-12-18T03:57:14;17.50;;;10.37;;
41456;SDS011;27197;51.752;5.220;2022-12-18T03:59:39;16.13;;;10.83;;
41456;SDS011;27197;51.752;5.220;2022-12-18T04:02:11;17.43;;;10.10;;
41456;SDS011;27197;51.752;5.220;2022-12-18T04:04:40;16.97;;;9.73;;
41456;SDS011;27197;51.752;5.220;2022-12-18T04:07:10;16.50;;;10.63;;
41456;SDS011;27197;51.752;5.220;2022-12-18T04:09:45;15.23;;;9.80;;
41456;SDS011;27197;51.752;5.220;2022-12-18T04:12:14;15.47;;;9.57;;
41456;SDS011;27197;51.752;5.220;2022-12-18T04:14:44;16.33;;;9.53;;
41456;SDS011;27197;51.752;5.220;2022-12-18T04:17:19;14.20;;;9.40;;
41456;SDS011;27197;51.752;5.220;2022-12-18T04:19:49;16.17;;;10.10;;
41456;SDS011;27197;51.752;5.220;2022-12-18T04:22:23;15.30;;;9.77;;
41456;SDS011;27197;51.752;5.220;2022-12-18T04:24:53;16.40;;;9.87;;
41456;SDS011;27197;51.752;5.220;2022-12-18T04:27:24;14.77;;;9.43;;
41456;SDS011;27197;51.752;5.220;2022-12-18T04:29:59;14.53;;;9.47;;
41456;SDS011;27197;51.752;5.220;2022-12-18T04:32:28;15.07;;;9.17;;
41456;SDS011;27197;51.752;5.220;2022-12-18T04:35:03;15.20;;;9.17;;
41456;SDS011;27197;51.752;5.220;2022-12-18T04:37:32;14.57;;;9.60;;
41456;SDS011;27197;51.752;5.220;2022-12-18T04:40:02;14.83;;;9.30;;
41456;SDS011;27197;51.752;5.220;2022-12-18T04:42:34;15.80;;;9.13;;
41456;SDS011;27197;51.752;5.220;2022-12-18T04:45:04;16.27;;;9.93;;
41456;SDS011;27197;51.752;5.220;2022-12-18T04:47:37;15.33;;;9.87;;
41456;SDS011;27197;51.752;5.220;2022-12-18T04:50:07;14.53;;;9.43;;
41456;SDS011;27197;51.752;5.220;2022-12-18T04:52:39;13.87;;;8.93;;
41456;SDS011;27197;51.752;5.220;2022-12-18T04:55:09;15.87;;;9.23;;
41456;SDS011;27197;51.752;5.220;2022-12-18T04:57:41;15.00;;;9.90;;
41456;SDS011;27197;51.752;5.220;2022-12-18T05:00:11;13.85;;;8.63;;
41456;SDS011;27197;51.752;5.220;2022-12-18T05:02:44;16.07;;;9.63;;
41456;SDS011;27197;51.752;5.220;2022-12-18T05:05:14;14.50;;;9.17;;
41456;SDS011;27197;51.752;5.220;2022-12-18T05:07:42;13.67;;;8.73;;
41456;SDS011;27197;51.752;5.220;2022-12-18T05:10:11;15.77;;;8.87;;
41456;SDS011;27197;51.752;5.220;2022-12-18T05:12:44;14.40;;;9.17;;
41456;SDS011;27197;51.752;5.220;2022-12-18T05:15:32;13.60;;;9.10;;
41456;SDS011;27197;51.752;5.220;2022-12-18T05:18:02;13.20;;;8.30;;
41456;SDS011;27197;51.752;5.220;2022-12-18T05:20:30;14.33;;;9.63;;
41456;SDS011;27197;51.752;5.220;2022-12-18T05:23:05;13.30;;;8.73;;
41456;SDS011;27197;51.752;5.220;2022-12-18T05:25:34;14.17;;;9.17;;
41456;SDS011;27197;51.752;5.220;2022-12-18T05:28:06;16.70;;;9.50;;
41456;SDS011;27197;51.752;5.220;2022-12-18T05:30:39;13.03;;;9.13;;
41456;SDS011;27197;51.752;5.220;2022-12-18T05:33:12;12.70;;;8.20;;
41456;SDS011;27197;51.752;5.220;2022-12-18T05:35:41;13.23;;;8.80;;
41456;SDS011;27197;51.752;5.220;2022-12-18T05:38:10;12.40;;;8.63;;
41456;SDS011;27197;51.752;5.220;2022-12-18T05:40:42;13.67;;;8.60;;
41456;SDS011;27197;51.752;5.220;2022-12-18T05:43:12;13.10;;;8.07;;
41456;SDS011;27197;51.752;5.220;2022-12-18T05:45:44;11.97;;;8.27;;
41456;SDS011;27197;51.752;5.220;2022-12-18T05:48:14;13.40;;;8.90;;
41456;SDS011;27197;51.752;5.220;2022-12-18T05:50:46;14.07;;;9.47;;
41456;SDS011;27197;51.752;5.220;2022-12-18T05:53:16;13.27;;;8.60;;
41456;SDS011;27197;51.752;5.220;2022-12-18T05:55:48;13.33;;;8.33;;
41456;SDS011;27197;51.752;5.220;2022-12-18T05:58:17;12.70;;;9.13;;
41456;SDS011;27197;51.752;5.220;2022-12-18T06:00:49;13.10;;;8.80;;
41456;SDS011;27197;51.752;5.220;2022-12-18T06:03:19;15.07;;;8.90;;
41456;SDS011;27197;51.752;5.220;2022-12-18T06:05:49;13.03;;;9.30;;
41456;SDS011;27197;51.752;5.220;2022-12-18T06:08:21;12.03;;;7.80;;
41456;SDS011;27197;51.752;5.220;2022-12-18T06:10:52;14.35;;;8.33;;
41456;SDS011;27197;51.752;5.220;2022-12-18T06:13:20;13.95;;;8.40;;
41456;SDS011;27197;51.752;5.220;2022-12-18T06:15:52;12.47;;;7.93;;
41456;SDS011;27197;51.752;5.220;2022-12-18T06:18:22;12.20;;;8.63;;
41456;SDS011;27197;51.752;5.220;2022-12-18T06:20:55;12.07;;;8.35;;
41456;SDS011;27197;51.752;5.220;2022-12-18T06:23:25;14.33;;;8.00;;
41456;SDS011;27197;51.752;5.220;2022-12-18T06:25:55;12.63;;;8.00;;
41456;SDS011;27197;51.752;5.220;2022-12-18T06:28:24;11.83;;;7.87;;
41456;SDS011;27197;51.752;5.220;2022-12-18T06:30:56;13.13;;;7.97;;
41456;SDS011;27197;51.752;5.220;2022-12-18T06:33:26;11.50;;;8.00;;
41456;SDS011;27197;51.752;5.220;2022-12-18T06:36:06;11.70;;;8.03;;
41456;SDS011;27197;51.752;5.220;2022-12-18T06:38:33;11.80;;;8.10;;
41456;SDS011;27197;51.752;5.220;2022-12-18T06:41:13;11.03;;;7.70;;
41456;SDS011;27197;51.752;5.220;2022-12-18T06:43:42;13.07;;;7.90;;
41456;SDS011;27197;51.752;5.220;2022-12-18T06:46:13;12.25;;;8.13;;
41456;SDS011;27197;51.752;5.220;2022-12-18T06:48:45;11.77;;;8.60;;
41456;SDS011;27197;51.752;5.220;2022-12-18T06:51:20;12.20;;;7.87;;
41456;SDS011;27197;51.752;5.220;2022-12-18T06:53:52;12.93;;;8.47;;
41456;SDS011;27197;51.752;5.220;2022-12-18T06:56:22;11.83;;;7.43;;
41456;SDS011;27197;51.752;5.220;2022-12-18T06:58:54;11.30;;;7.80;;
41456;SDS011;27197;51.752;5.220;2022-12-18T07:01:24;11.05;;;7.58;;
41456;SDS011;27197;51.752;5.220;2022-12-18T07:03:56;12.07;;;7.80;;
41456;SDS011;27197;51.752;5.220;2022-12-18T07:06:25;11.38;;;7.58;;
41456;SDS011;27197;51.752;5.220;2022-12-18T07:11:23;11.87;;;7.43;;
41456;SDS011;27197;51.752;5.220;2022-12-18T07:18:48;12.00;;;6.87;;
41456;SDS011;27197;51.752;5.220;2022-12-18T07:21:20;11.57;;;7.28;;
41456;SDS011;27197;51.752;5.220;2022-12-18T07:23:49;11.60;;;6.97;;
41456;SDS011;27197;51.752;5.220;2022-12-18T07:26:22;12.03;;;7.40;;
41456;SDS011;27197;51.752;5.220;2022-12-18T07:28:54;11.40;;;6.90;;
41456;SDS011;27197;51.752;5.220;2022-12-18T07:31:26;12.07;;;6.77;;
41456;SDS011;27197;51.752;5.220;2022-12-18T07:33:57;12.47;;;7.80;;
41456;SDS011;27197;51.752;5.220;2022-12-18T07:36:30;10.43;;;7.27;;
41456;SDS011;27197;51.752;5.220;2022-12-18T07:38:59;11.47;;;7.30;;
41456;SDS011;27197;51.752;5.220;2022-12-18T07:41:31;11.53;;;7.78;;
41456;SDS011;27197;51.752;5.220;2022-12-18T07:44:00;10.23;;;6.75;;
41456;SDS011;27197;51.752;5.220;2022-12-18T07:46:29;13.20;;;9.08;;
41456;SDS011;27197;51.752;5.220;2022-12-18T07:48:58;11.23;;;7.37;;
41456;SDS011;27197;51.752;5.220;2022-12-18T07:51:28;14.78;;;9.68;;
41456;SDS011;27197;51.752;5.220;2022-12-18T07:53:57;9.93;;;6.40;;
41456;SDS011;27197;51.752;5.220;2022-12-18T07:56:29;9.85;;;6.80;;
41456;SDS011;27197;51.752;5.220;2022-12-18T07:58:59;11.13;;;7.20;;
41456;SDS011;27197;51.752;5.220;2022-12-18T08:01:33;10.93;;;6.80;;
41456;SDS011;27197;51.752;5.220;2022-12-18T08:04:03;11.03;;;6.65;;
41456;SDS011;27197;51.752;5.220;2022-12-18T08:06:32;11.53;;;7.30;;
41456;SDS011;27197;51.752;5.220;2022-12-18T08:09:03;12.05;;;7.35;;
41456;SDS011;27197;51.752;5.220;2022-12-18T08:11:31;12.17;;;8.43;;
41456;SDS011;27197;51.752;5.220;2022-12-18T08:14:04;10.03;;;6.28;;
41456;SDS011;27197;51.752;5.220;2022-12-18T08:16:33;10.70;;;6.60;;
41456;SDS011;27197;51.752;5.220;2022-12-18T08:21:33;13.03;;;9.10;;
41456;SDS011;27197;51.752;5.220;2022-12-18T08:24:02;10.63;;;7.53;;
41456;SDS011;27197;51.752;5.220;2022-12-18T08:26:34;12.33;;;7.73;;
41456;SDS011;27197;51.752;5.220;2022-12-18T08:29:04;10.28;;;6.62;;
41456;SDS011;27197;51.752;5.220;2022-12-18T08:31:36;15.03;;;8.67;;
41456;SDS011;27197;51.752;5.220;2022-12-18T08:34:05;11.00;;;8.00;;
41456;SDS011;27197;51.752;5.220;2022-12-18T08:36:35;12.03;;;8.13;;
41456;SDS011;27197;51.752;5.220;2022-12-18T08:39:04;11.80;;;7.03;;
41456;SDS011;27197;51.752;5.220;2022-12-18T08:41:36;14.13;;;8.83;;
41456;SDS011;27197;51.752;5.220;2022-12-18T08:44:08;12.13;;;7.00;;
41456;SDS011;27197;51.752;5.220;2022-12-18T08:46:57;10.23;;;6.15;;
41456;SDS011;27197;51.752;5.220;2022-12-18T08:49:27;10.98;;;7.25;;
41456;SDS011;27197;51.752;5.220;2022-12-18T08:51:59;12.53;;;8.33;;
41456;SDS011;27197;51.752;5.220;2022-12-18T08:54:28;11.28;;;6.80;;
41456;SDS011;27197;51.752;5.220;2022-12-18T08:56:57;12.17;;;8.77;;
41456;SDS011;27197;51.752;5.220;2022-12-18T08:59:26;12.87;;;8.27;;
41456;SDS011;27197;51.752;5.220;2022-12-18T09:01:58;11.60;;;6.73;;
41456;SDS011;27197;51.752;5.220;2022-12-18T09:04:31;10.93;;;6.70;;
41456;SDS011;27197;51.752;5.220;2022-12-18T09:07:04;12.03;;;8.27;;
41456;SDS011;27197;51.752;5.220;2022-12-18T09:09:34;10.90;;;6.80;;
41456;SDS011;27197;51.752;5.220;2022-12-18T09:12:03;10.53;;;6.83;;
41456;SDS011;27197;51.752;5.220;2022-12-18T09:14:32;11.00;;;6.60;;
41456;SDS011;27197;51.752;5.220;2022-12-18T09:17:04;9.23;;;5.87;;
41456;SDS011;27197;51.752;5.220;2022-12-18T09:19:34;10.07;;;6.03;;
41456;SDS011;27197;51.752;5.220;2022-12-18T09:22:06;11.67;;;6.73;;
41456;SDS011;27197;51.752;5.220;2022-12-18T09:24:38;10.63;;;6.40;;
41456;SDS011;27197;51.752;5.220;2022-12-18T09:27:08;10.03;;;6.40;;
41456;SDS011;27197;51.752;5.220;2022-12-18T09:29:40;8.53;;;5.97;;
41456;SDS011;27197;51.752;5.220;2022-12-18T09:32:10;10.00;;;6.47;;
41456;SDS011;27197;51.752;5.220;2022-12-18T09:34:42;10.33;;;6.87;;
41456;SDS011;27197;51.752;5.220;2022-12-18T09:37:12;10.10;;;6.33;;
41456;SDS011;27197;51.752;5.220;2022-12-18T09:39:44;12.20;;;6.00;;
41456;SDS011;27197;51.752;5.220;2022-12-18T09:42:20;12.67;;;7.80;;
41456;SDS011;27197;51.752;5.220;2022-12-18T09:44:50;9.00;;;5.73;;
41456;SDS011;27197;51.752;5.220;2022-12-18T09:47:20;14.30;;;8.43;;
41456;SDS011;27197;51.752;5.220;2022-12-18T09:49:55;9.67;;;6.30;;
41456;SDS011;27197;51.752;5.220;2022-12-18T09:52:37;9.88;;;6.05;;
41456;SDS011;27197;51.752;5.220;2022-12-18T09:55:09;10.58;;;6.33;;
41456;SDS011;27197;51.752;5.220;2022-12-18T09:57:38;11.87;;;7.90;;
41456;SDS011;27197;51.752;5.220;2022-12-18T10:00:19;8.43;;;5.80;;
41456;SDS011;27197;51.752;5.220;2022-12-18T10:02:49;9.73;;;6.63;;
41456;SDS011;27197;51.752;5.220;2022-12-18T10:05:32;10.10;;;6.43;;
41456;SDS011;27197;51.752;5.220;2022-12-18T10:08:09;10.60;;;6.97;;
41456;SDS011;27197;51.752;5.220;2022-12-18T10:10:40;10.00;;;6.13;;
41456;SDS011;27197;51.752;5.220;2022-12-18T10:13:14;8.73;;;5.60;;
41456;SDS011;27197;51.752;5.220;2022-12-18T10:20:54;12.00;;;8.37;;
41456;SDS011;27197;51.752;5.220;2022-12-18T10:26:10;11.70;;;7.83;;
41456;SDS011;27197;51.752;5.220;2022-12-18T10:28:40;12.93;;;8.03;;
41456;SDS011;27197;51.752;5.220;2022-12-18T10:31:20;13.57;;;8.40;;
41456;SDS011;27197;51.752;5.220;2022-12-18T10:33:50;8.90;;;6.23;;
41456;SDS011;27197;51.752;5.220;2022-12-18T10:36:22;9.43;;;6.17;;
41456;SDS011;27197;51.752;5.220;2022-12-18T10:38:51;12.67;;;8.93;;
41456;SDS011;27197;51.752;5.220;2022-12-18T10:41:26;11.07;;;6.67;;
41456;SDS011;27197;51.752;5.220;2022-12-18T10:46:45;10.03;;;6.03;;
41456;SDS011;27197;51.752;5.220;2022-12-18T10:49:20;10.77;;;7.27;;
41456;SDS011;27197;51.752;5.220;2022-12-18T10:51:48;10.57;;;6.87;;
41456;SDS011;27197;51.752;5.220;2022-12-18T10:56:48;9.30;;;5.67;;
41456;SDS011;27197;51.752;5.220;2022-12-18T10:59:17;10.43;;;6.13;;
41456;SDS011;27197;51.752;5.220;2022-12-18T11:01:51;10.07;;;5.97;;
41456;SDS011;27197;51.752;5.220;2022-12-18T11:04:22;14.00;;;9.97;;
41456;SDS011;27197;51.752;5.220;2022-12-18T11:09:28;8.90;;;5.47;;
41456;SDS011;27197;51.752;5.220;2022-12-18T11:12:04;7.20;;;4.93;;
41456;SDS011;27197;51.752;5.220;2022-12-18T11:19:40;7.27;;;4.67;;
41456;SDS011;27197;51.752;5.220;2022-12-18T11:27:25;13.95;;;8.45;;
41456;SDS011;27197;51.752;5.220;2022-12-18T11:30:40;14.77;;;9.67;;
41456;SDS011;27197;51.752;5.220;2022-12-18T11:32:33;11.27;;;6.43;;
41456;SDS011;27197;51.752;5.220;2022-12-18T11:35:22;13.93;;;9.08;;
41456;SDS011;27197;51.752;5.220;2022-12-18T11:37:55;12.33;;;5.67;;
41456;SDS011;27197;51.752;5.220;2022-12-18T11:40:28;12.50;;;6.40;;
41456;SDS011;27197;51.752;5.220;2022-12-18T11:43:18;9.63;;;6.00;;
41456;SDS011;27197;51.752;5.220;2022-12-18T11:45:34;12.20;;;7.50;;
41456;SDS011;27197;51.752;5.220;2022-12-18T11:48:14;14.20;;;8.70;;
41456;SDS011;27197;51.752;5.220;2022-12-18T11:50:51;11.10;;;7.17;;
41456;SDS011;27197;51.752;5.220;2022-12-18T11:53:20;10.13;;;5.75;;
41456;SDS011;27197;51.752;5.220;2022-12-18T11:58:49;13.87;;;9.33;;
41456;SDS011;27197;51.752;5.220;2022-12-18T12:01:35;12.17;;;6.93;;
41456;SDS011;27197;51.752;5.220;2022-12-18T12:04:06;12.03;;;7.50;;
41456;SDS011;27197;51.752;5.220;2022-12-18T12:12:11;13.50;;;8.13;;
41456;SDS011;27197;51.752;5.220;2022-12-18T12:22:32;13.77;;;8.70;;
41456;SDS011;27197;51.752;5.220;2022-12-18T12:25:03;13.80;;;9.88;;
41456;SDS011;27197;51.752;5.220;2022-12-18T12:30:35;15.80;;;9.40;;
41456;SDS011;27197;51.752;5.220;2022-12-18T12:40:48;7.90;;;5.42;;
41456;SDS011;27197;51.752;5.220;2022-12-18T12:46:04;13.53;;;9.30;;
41456;SDS011;27197;51.752;5.220;2022-12-18T12:51:14;9.63;;;6.63;;
41456;SDS011;27197;51.752;5.220;2022-12-18T12:53:45;9.97;;;5.97;;
41456;SDS011;27197;51.752;5.220;2022-12-18T13:01:38;14.50;;;7.80;;
41456;SDS011;27197;51.752;5.220;2022-12-18T13:06:50;8.03;;;5.37;;
41456;SDS011;27197;51.752;5.220;2022-12-18T13:09:22;9.27;;;6.30;;
41456;SDS011;27197;51.752;5.220;2022-12-18T13:11:52;9.93;;;5.90;;
41456;SDS011;27197;51.752;5.220;2022-12-18T13:14:41;8.57;;;5.90;;
41456;SDS011;27197;51.752;5.220;2022-12-18T13:17:15;9.00;;;5.97;;
41456;SDS011;27197;51.752;5.220;2022-12-18T13:19:48;14.53;;;10.40;;
41456;SDS011;27197;51.752;5.220;2022-12-18T13:22:28;12.67;;;8.90;;
41456;SDS011;27197;51.752;5.220;2022-12-18T13:24:49;9.47;;;5.83;;
41456;SDS011;27197;51.752;5.220;2022-12-18T13:30:12;9.50;;;6.23;;
41456;SDS011;27197;51.752;5.220;2022-12-18T13:32:35;15.97;;;10.63;;
41456;SDS011;27197;51.752;5.220;2022-12-18T13:35:37;11.97;;;7.93;;
41456;SDS011;27197;51.752;5.220;2022-12-18T13:37:43;10.60;;;7.13;;
41456;SDS011;27197;51.752;5.220;2022-12-18T13:40:46;15.17;;;11.03;;
41456;SDS011;27197;51.752;5.220;2022-12-18T13:42:56;11.40;;;7.43;;
41456;SDS011;27197;51.752;5.220;2022-12-18T13:45:45;10.97;;;7.03;;
41456;SDS011;27197;51.752;5.220;2022-12-18T13:48:19;10.00;;;6.40;;
41456;SDS011;27197;51.752;5.220;2022-12-18T13:51:09;10.80;;;7.70;;
41456;SDS011;27197;51.752;5.220;2022-12-18T13:53:25;10.00;;;7.30;;
41456;SDS011;27197;51.752;5.220;2022-12-18T13:55:54;13.93;;;8.33;;
41456;SDS011;27197;51.752;5.220;2022-12-18T14:00:52;11.27;;;7.87;;
41456;SDS011;27197;51.752;5.220;2022-12-18T14:03:26;12.57;;;7.73;;
41456;SDS011;27197;51.752;5.220;2022-12-18T14:06:02;14.67;;;10.07;;
41456;SDS011;27197;51.752;5.220;2022-12-18T14:08:32;10.73;;;7.67;;
41456;SDS011;27197;51.752;5.220;2022-12-18T14:11:00;15.63;;;9.83;;
41456;SDS011;27197;51.752;5.220;2022-12-18T14:13:33;13.17;;;8.73;;
41456;SDS011;27197;51.752;5.220;2022-12-18T14:16:03;12.50;;;8.27;;
41456;SDS011;27197;51.752;5.220;2022-12-18T14:21:25;12.07;;;8.23;;
41456;SDS011;27197;51.752;5.220;2022-12-18T14:24:05;14.70;;;9.10;;
41456;SDS011;27197;51.752;5.220;2022-12-18T14:26:37;9.67;;;6.63;;
41456;SDS011;27197;51.752;5.220;2022-12-18T14:32:10;12.60;;;8.53;;
41456;SDS011;27197;51.752;5.220;2022-12-18T14:34:40;11.83;;;8.40;;
41456;SDS011;27197;51.752;5.220;2022-12-18T14:37:10;10.07;;;6.37;;
41456;SDS011;27197;51.752;5.220;2022-12-18T14:39:39;11.60;;;7.53;;
41456;SDS011;27197;51.752;5.220;2022-12-18T14:44:37;12.00;;;8.27;;
41456;SDS011;27197;51.752;5.220;2022-12-18T14:47:13;11.53;;;7.60;;
41456;SDS011;27197;51.752;5.220;2022-12-18T14:49:40;10.20;;;7.30;;
41456;SDS011;27197;51.752;5.220;2022-12-18T14:52:23;9.33;;;5.93;;
41456;SDS011;27197;51.752;5.220;2022-12-18T14:54:53;12.87;;;8.20;;
41456;SDS011;27197;51.752;5.220;2022-12-18T14:57:29;13.47;;;8.87;;
41456;SDS011;27197;51.752;5.220;2022-12-18T15:00:07;9.37;;;5.53;;
41456;SDS011;27197;51.752;5.220;2022-12-18T15:02:38;10.23;;;6.00;;
41456;SDS011;27197;51.752;5.220;2022-12-18T15:07:44;11.27;;;7.43;;
41456;SDS011;27197;51.752;5.220;2022-12-18T15:10:18;14.57;;;9.27;;
41456;SDS011;27197;51.752;5.220;2022-12-18T15:12:48;10.60;;;7.17;;
41456;SDS011;27197;51.752;5.220;2022-12-18T15:20:41;9.90;;;6.50;;
41456;SDS011;27197;51.752;5.220;2022-12-18T15:23:19;13.43;;;8.23;;
41456;SDS011;27197;51.752;5.220;2022-12-18T15:25:48;9.47;;;6.50;;
41456;SDS011;27197;51.752;5.220;2022-12-18T15:28:28;11.30;;;7.10;;
41456;SDS011;27197;51.752;5.220;2022-12-18T15:33:34;12.83;;;8.73;;
41456;SDS011;27197;51.752;5.220;2022-12-18T15:36:04;9.53;;;6.23;;
41456;SDS011;27197;51.752;5.220;2022-12-18T15:38:37;13.50;;;9.60;;
41456;SDS011;27197;51.752;5.220;2022-12-18T15:41:05;8.87;;;5.90;;
41456;SDS011;27197;51.752;5.220;2022-12-18T15:43:33;9.70;;;6.42;;
41456;SDS011;27197;51.752;5.220;2022-12-18T15:46:18;11.83;;;7.07;;
41456;SDS011;27197;51.752;5.220;2022-12-18T15:48:48;9.43;;;6.67;;
41456;SDS011;27197;51.752;5.220;2022-12-18T15:51:28;9.53;;;6.27;;
41456;SDS011;27197;51.752;5.220;2022-12-18T15:53:58;9.87;;;6.40;;
41456;SDS011;27197;51.752;5.220;2022-12-18T15:56:30;12.10;;;7.07;;
41456;SDS011;27197;51.752;5.220;2022-12-18T15:59:16;12.37;;;7.70;;
41456;SDS011;27197;51.752;5.220;2022-12-18T16:01:47;13.40;;;8.50;;
41456;SDS011;27197;51.752;5.220;2022-12-18T16:04:16;10.00;;;6.53;;
41456;SDS011;27197;51.752;5.220;2022-12-18T16:06:52;9.70;;;6.10;;
41456;SDS011;27197;51.752;5.220;2022-12-18T16:09:21;9.83;;;6.67;;
41456;SDS011;27197;51.752;5.220;2022-12-18T16:11:50;13.33;;;9.47;;
41456;SDS011;27197;51.752;5.220;2022-12-18T16:14:24;8.83;;;6.13;;
41456;SDS011;27197;51.752;5.220;2022-12-18T16:16:54;11.30;;;7.20;;
41456;SDS011;27197;51.752;5.220;2022-12-18T16:19:23;17.40;;;10.60;;
41456;SDS011;27197;51.752;5.220;2022-12-18T16:21:54;11.73;;;8.20;;
41456;SDS011;27197;51.752;5.220;2022-12-18T16:24:25;16.27;;;9.00;;
41456;SDS011;27197;51.752;5.220;2022-12-18T16:26:53;8.53;;;5.57;;
41456;SDS011;27197;51.752;5.220;2022-12-18T16:29:25;12.27;;;8.27;;
41456;SDS011;27197;51.752;5.220;2022-12-18T16:31:59;11.60;;;6.67;;
41456;SDS011;27197;51.752;5.220;2022-12-18T16:34:30;11.80;;;7.13;;
41456;SDS011;27197;51.752;5.220;2022-12-18T16:37:03;10.30;;;6.60;;
41456;SDS011;27197;51.752;5.220;2022-12-18T16:39:33;12.27;;;6.80;;
41456;SDS011;27197;51.752;5.220;2022-12-18T16:42:04;18.63;;;11.43;;
41456;SDS011;27197;51.752;5.220;2022-12-18T16:44:34;12.60;;;7.97;;
41456;SDS011;27197;51.752;5.220;2022-12-18T16:47:03;9.93;;;6.70;;
41456;SDS011;27197;51.752;5.220;2022-12-18T16:52:01;10.87;;;7.10;;
41456;SDS011;27197;51.752;5.220;2022-12-18T16:54:29;10.15;;;5.70;;
41456;SDS011;27197;51.752;5.220;2022-12-18T16:57:01;13.73;;;8.53;;
41456;SDS011;27197;51.752;5.220;2022-12-18T16:59:30;11.70;;;7.57;;
41456;SDS011;27197;51.752;5.220;2022-12-18T17:02:01;14.77;;;9.73;;